sensor_id;sensor_type;location;lat;lon;timestamp;P1;durP1;ratioP1;P2;durP2;ratioP2
35380;SDS011;21486;51.916;8.378;2023-03-14T00:02:16;6.77;;;1.90;;
35380;SDS011;21486;51.916;8.378;2023-03-14T00:04:42;7.87;;;2.27;;
35380;SDS011;21486;51.916;8.378;2023-03-14T00:07:07;5.00;;;2.00;;
35380;SDS011;21486;51.916;8.378;2023-03-14T00:09:35;6.18;;;1.77;;
35380;SDS011;21486;51.916;8.378;2023-03-14T00:12:00;6.88;;;1.98;;
35380;SDS011;21486;51.916;8.378;2023-03-14T00:14:28;7.93;;;2.28;;
35380;SDS011;21486;51.916;8.378;2023-03-14T00:16:54;3.90;;;1.77;;
35380;SDS011;21486;51.916;8.378;2023-03-14T00:19:19;4.93;;;2.07;;
35380;SDS011;21486;51.916;8.378;2023-03-14T00:21:45;6.37;;;2.07;;
35380;SDS011;21486;51.916;8.378;2023-03-14T00:24:11;5.93;;;1.87;;
35380;SDS011;21486;51.916;8.378;2023-03-14T00:26:36;5.47;;;1.93;;
35380;SDS011;21486;51.916;8.378;2023-03-14T00:29:02;7.45;;;2.25;;
35380;SDS011;21486;51.916;8.378;2023-03-14T00:31:27;5.70;;;1.95;;
35380;SDS011;21486;51.916;8.378;2023-03-14T00:33:53;7.83;;;1.97;;
35380;SDS011;21486;51.916;8.378;2023-03-14T00:36:19;6.97;;;2.07;;
35380;SDS011;21486;51.916;8.378;2023-03-14T00:38:46;4.88;;;2.10;;
35380;SDS011;21486;51.916;8.378;2023-03-14T00:41:14;6.00;;;1.80;;
35380;SDS011;21486;51.916;8.378;2023-03-14T00:43:41;7.40;;;2.00;;
35380;SDS011;21486;51.916;8.378;2023-03-14T00:46:07;5.13;;;2.15;;
35380;SDS011;21486;51.916;8.378;2023-03-14T00:48:33;5.07;;;1.60;;
35380;SDS011;21486;51.916;8.378;2023-03-14T00:50:59;6.67;;;2.07;;
35380;SDS011;21486;51.916;8.378;2023-03-14T00:53:26;5.57;;;2.08;;
35380;SDS011;21486;51.916;8.378;2023-03-14T00:55:51;5.78;;;2.05;;
35380;SDS011;21486;51.916;8.378;2023-03-14T00:58:17;5.53;;;2.10;;
35380;SDS011;21486;51.916;8.378;2023-03-14T01:00:43;7.72;;;2.20;;
35380;SDS011;21486;51.916;8.378;2023-03-14T01:03:10;9.73;;;2.13;;
35380;SDS011;21486;51.916;8.378;2023-03-14T01:05:37;7.40;;;2.03;;
35380;SDS011;21486;51.916;8.378;2023-03-14T01:08:03;9.33;;;1.97;;
35380;SDS011;21486;51.916;8.378;2023-03-14T01:10:29;7.38;;;1.90;;
35380;SDS011;21486;51.916;8.378;2023-03-14T01:12:55;6.25;;;2.00;;
35380;SDS011;21486;51.916;8.378;2023-03-14T01:15:21;11.63;;;1.80;;
35380;SDS011;21486;51.916;8.378;2023-03-14T01:17:47;8.38;;;2.10;;
35380;SDS011;21486;51.916;8.378;2023-03-14T01:20:13;7.77;;;2.13;;
35380;SDS011;21486;51.916;8.378;2023-03-14T01:22:40;10.07;;;2.20;;
35380;SDS011;21486;51.916;8.378;2023-03-14T01:25:06;8.38;;;2.35;;
35380;SDS011;21486;51.916;8.378;2023-03-14T01:27:33;6.45;;;1.75;;
35380;SDS011;21486;51.916;8.378;2023-03-14T01:29:59;7.43;;;1.85;;
35380;SDS011;21486;51.916;8.378;2023-03-14T01:33:01;8.75;;;2.05;;
35380;SDS011;21486;51.916;8.378;2023-03-14T01:35:27;8.47;;;2.33;;
35380;SDS011;21486;51.916;8.378;2023-03-14T01:37:52;9.35;;;2.03;;
35380;SDS011;21486;51.916;8.378;2023-03-14T01:40:18;8.90;;;2.53;;
35380;SDS011;21486;51.916;8.378;2023-03-14T01:42:56;5.40;;;1.70;;
35380;SDS011;21486;51.916;8.378;2023-03-14T01:48:25;8.05;;;2.03;;
35380;SDS011;21486;51.916;8.378;2023-03-14T01:50:56;6.95;;;1.75;;
35380;SDS011;21486;51.916;8.378;2023-03-14T01:53:24;8.55;;;1.98;;
35380;SDS011;21486;51.916;8.378;2023-03-14T01:55:50;5.80;;;1.73;;
35380;SDS011;21486;51.916;8.378;2023-03-14T01:58:21;9.90;;;2.15;;
35380;SDS011;21486;51.916;8.378;2023-03-14T02:00:47;10.52;;;1.95;;
35380;SDS011;21486;51.916;8.378;2023-03-14T02:03:16;7.85;;;1.95;;
35380;SDS011;21486;51.916;8.378;2023-03-14T02:05:43;8.57;;;2.20;;
35380;SDS011;21486;51.916;8.378;2023-03-14T02:08:12;8.10;;;1.90;;
35380;SDS011;21486;51.916;8.378;2023-03-14T02:10:41;9.18;;;1.80;;
35380;SDS011;21486;51.916;8.378;2023-03-14T02:13:09;6.65;;;1.90;;
35380;SDS011;21486;51.916;8.378;2023-03-14T02:15:36;8.48;;;2.10;;
35380;SDS011;21486;51.916;8.378;2023-03-14T02:18:03;14.25;;;2.58;;
35380;SDS011;21486;51.916;8.378;2023-03-14T02:20:39;9.00;;;2.33;;
35380;SDS011;21486;51.916;8.378;2023-03-14T02:23:13;7.38;;;1.90;;
35380;SDS011;21486;51.916;8.378;2023-03-14T02:25:51;10.10;;;2.13;;
35380;SDS011;21486;51.916;8.378;2023-03-14T02:28:22;6.97;;;1.90;;
35380;SDS011;21486;51.916;8.378;2023-03-14T02:30:48;7.37;;;1.87;;
35380;SDS011;21486;51.916;8.378;2023-03-14T02:33:16;4.38;;;1.20;;
35380;SDS011;21486;51.916;8.378;2023-03-14T02:35:44;5.82;;;1.85;;
35380;SDS011;21486;51.916;8.378;2023-03-14T02:41:14;5.07;;;1.33;;
35380;SDS011;21486;51.916;8.378;2023-03-14T02:43:41;2.83;;;1.10;;
35380;SDS011;21486;51.916;8.378;2023-03-14T02:46:07;5.63;;;1.50;;
35380;SDS011;21486;51.916;8.378;2023-03-14T02:51:39;4.57;;;1.60;;
35380;SDS011;21486;51.916;8.378;2023-03-14T02:54:07;3.33;;;1.20;;
35380;SDS011;21486;51.916;8.378;2023-03-14T02:56:33;4.47;;;1.43;;
35380;SDS011;21486;51.916;8.378;2023-03-14T02:58:59;4.53;;;1.30;;
35380;SDS011;21486;51.916;8.378;2023-03-14T03:01:30;4.70;;;1.40;;
35380;SDS011;21486;51.916;8.378;2023-03-14T03:03:56;6.78;;;1.70;;
35380;SDS011;21486;51.916;8.378;2023-03-14T03:06:21;6.50;;;1.38;;
35380;SDS011;21486;51.916;8.378;2023-03-14T03:08:47;9.07;;;1.98;;
35380;SDS011;21486;51.916;8.378;2023-03-14T03:11:13;7.18;;;1.50;;
35380;SDS011;21486;51.916;8.378;2023-03-14T03:13:38;7.07;;;1.77;;
35380;SDS011;21486;51.916;8.378;2023-03-14T03:16:04;6.30;;;1.40;;
35380;SDS011;21486;51.916;8.378;2023-03-14T03:18:30;5.93;;;1.60;;
35380;SDS011;21486;51.916;8.378;2023-03-14T03:20:59;5.28;;;1.30;;
35380;SDS011;21486;51.916;8.378;2023-03-14T03:23:28;5.47;;;1.35;;
35380;SDS011;21486;51.916;8.378;2023-03-14T03:25:54;4.43;;;1.37;;
35380;SDS011;21486;51.916;8.378;2023-03-14T03:28:19;5.67;;;1.53;;
35380;SDS011;21486;51.916;8.378;2023-03-14T03:30:45;3.77;;;1.30;;
35380;SDS011;21486;51.916;8.378;2023-03-14T03:33:11;5.00;;;1.50;;
35380;SDS011;21486;51.916;8.378;2023-03-14T03:35:47;4.55;;;1.30;;
35380;SDS011;21486;51.916;8.378;2023-03-14T03:38:14;2.65;;;1.00;;
35380;SDS011;21486;51.916;8.378;2023-03-14T03:40:40;5.90;;;1.07;;
35380;SDS011;21486;51.916;8.378;2023-03-14T03:43:06;1.88;;;1.10;;
35380;SDS011;21486;51.916;8.378;2023-03-14T03:45:31;5.47;;;1.33;;
35380;SDS011;21486;51.916;8.378;2023-03-14T03:47:57;4.25;;;1.20;;
35380;SDS011;21486;51.916;8.378;2023-03-14T03:50:22;6.97;;;1.47;;
35380;SDS011;21486;51.916;8.378;2023-03-14T03:52:48;5.37;;;1.43;;
35380;SDS011;21486;51.916;8.378;2023-03-14T03:55:13;4.70;;;1.40;;
35380;SDS011;21486;51.916;8.378;2023-03-14T03:57:39;6.85;;;1.52;;
35380;SDS011;21486;51.916;8.378;2023-03-14T04:00:05;8.00;;;2.03;;
35380;SDS011;21486;51.916;8.378;2023-03-14T04:02:32;7.68;;;1.67;;
35380;SDS011;21486;51.916;8.378;2023-03-14T04:04:57;7.18;;;2.10;;
35380;SDS011;21486;51.916;8.378;2023-03-14T04:07:23;8.48;;;1.70;;
35380;SDS011;21486;51.916;8.378;2023-03-14T04:09:48;10.60;;;2.47;;
35380;SDS011;21486;51.916;8.378;2023-03-14T04:12:14;7.60;;;1.70;;
35380;SDS011;21486;51.916;8.378;2023-03-14T04:14:39;10.97;;;2.10;;
35380;SDS011;21486;51.916;8.378;2023-03-14T04:17:06;8.60;;;2.20;;
35380;SDS011;21486;51.916;8.378;2023-03-14T04:19:31;7.60;;;1.83;;
35380;SDS011;21486;51.916;8.378;2023-03-14T04:21:57;10.65;;;1.83;;
35380;SDS011;21486;51.916;8.378;2023-03-14T04:24:23;11.40;;;1.93;;
35380;SDS011;21486;51.916;8.378;2023-03-14T04:26:48;11.33;;;2.03;;
35380;SDS011;21486;51.916;8.378;2023-03-14T04:29:14;8.50;;;1.70;;
35380;SDS011;21486;51.916;8.378;2023-03-14T04:31:39;6.97;;;2.10;;
35380;SDS011;21486;51.916;8.378;2023-03-14T04:34:05;11.32;;;1.80;;
35380;SDS011;21486;51.916;8.378;2023-03-14T04:36:30;7.93;;;1.98;;
35380;SDS011;21486;51.916;8.378;2023-03-14T04:38:56;4.40;;;1.53;;
35380;SDS011;21486;51.916;8.378;2023-03-14T04:41:21;7.87;;;2.30;;
35380;SDS011;21486;51.916;8.378;2023-03-14T04:43:47;10.67;;;1.93;;
35380;SDS011;21486;51.916;8.378;2023-03-14T04:46:13;9.73;;;2.10;;
35380;SDS011;21486;51.916;8.378;2023-03-14T04:48:38;8.48;;;2.20;;
35380;SDS011;21486;51.916;8.378;2023-03-14T04:51:04;7.68;;;1.85;;
35380;SDS011;21486;51.916;8.378;2023-03-14T04:53:30;9.32;;;2.15;;
35380;SDS011;21486;51.916;8.378;2023-03-14T04:55:56;9.80;;;2.27;;
35380;SDS011;21486;51.916;8.378;2023-03-14T04:58:21;7.77;;;1.83;;
35380;SDS011;21486;51.916;8.378;2023-03-14T05:00:49;11.32;;;2.90;;
35380;SDS011;21486;51.916;8.378;2023-03-14T05:03:16;9.23;;;2.17;;
35380;SDS011;21486;51.916;8.378;2023-03-14T05:05:42;10.63;;;2.33;;
35380;SDS011;21486;51.916;8.378;2023-03-14T05:08:08;13.90;;;2.28;;
35380;SDS011;21486;51.916;8.378;2023-03-14T05:10:34;8.88;;;2.17;;
35380;SDS011;21486;51.916;8.378;2023-03-14T05:12:59;8.50;;;2.27;;
35380;SDS011;21486;51.916;8.378;2023-03-14T05:15:25;12.80;;;2.67;;
35380;SDS011;21486;51.916;8.378;2023-03-14T05:17:51;9.77;;;2.20;;
35380;SDS011;21486;51.916;8.378;2023-03-14T05:20:17;10.23;;;2.50;;
35380;SDS011;21486;51.916;8.378;2023-03-14T05:22:42;9.18;;;2.08;;
35380;SDS011;21486;51.916;8.378;2023-03-14T05:25:08;8.80;;;2.20;;
35380;SDS011;21486;51.916;8.378;2023-03-14T05:27:34;10.48;;;2.28;;
35380;SDS011;21486;51.916;8.378;2023-03-14T05:30:00;8.83;;;2.33;;
35380;SDS011;21486;51.916;8.378;2023-03-14T05:32:27;7.07;;;2.00;;
35380;SDS011;21486;51.916;8.378;2023-03-14T05:34:53;8.02;;;2.20;;
35380;SDS011;21486;51.916;8.378;2023-03-14T05:37:23;8.77;;;2.20;;
35380;SDS011;21486;51.916;8.378;2023-03-14T05:39:48;7.38;;;1.65;;
35380;SDS011;21486;51.916;8.378;2023-03-14T05:42:14;8.68;;;2.40;;
35380;SDS011;21486;51.916;8.378;2023-03-14T05:44:39;3.73;;;1.70;;
35380;SDS011;21486;51.916;8.378;2023-03-14T05:47:05;4.13;;;1.40;;
35380;SDS011;21486;51.916;8.378;2023-03-14T05:49:30;5.30;;;1.50;;
35380;SDS011;21486;51.916;8.378;2023-03-14T05:51:56;4.55;;;1.48;;
35380;SDS011;21486;51.916;8.378;2023-03-14T05:54:21;5.70;;;1.45;;
35380;SDS011;21486;51.916;8.378;2023-03-14T05:56:47;4.13;;;1.37;;
35380;SDS011;21486;51.916;8.378;2023-03-14T05:59:12;4.30;;;1.13;;
35380;SDS011;21486;51.916;8.378;2023-03-14T06:01:39;5.40;;;1.13;;
35380;SDS011;21486;51.916;8.378;2023-03-14T06:04:05;4.00;;;1.40;;
35380;SDS011;21486;51.916;8.378;2023-03-14T06:06:30;3.20;;;1.10;;
35380;SDS011;21486;51.916;8.378;2023-03-14T06:08:56;2.83;;;1.17;;
35380;SDS011;21486;51.916;8.378;2023-03-14T06:11:21;3.15;;;1.10;;
35380;SDS011;21486;51.916;8.378;2023-03-14T06:13:51;3.33;;;0.90;;
35380;SDS011;21486;51.916;8.378;2023-03-14T06:16:17;3.43;;;0.87;;
35380;SDS011;21486;51.916;8.378;2023-03-14T06:18:42;3.07;;;0.97;;
35380;SDS011;21486;51.916;8.378;2023-03-14T06:21:08;3.57;;;1.00;;
35380;SDS011;21486;51.916;8.378;2023-03-14T06:23:33;1.60;;;0.90;;
35380;SDS011;21486;51.916;8.378;2023-03-14T06:25:59;2.33;;;0.80;;
35380;SDS011;21486;51.916;8.378;2023-03-14T06:28:25;2.05;;;0.75;;
35380;SDS011;21486;51.916;8.378;2023-03-14T06:30:50;2.55;;;1.00;;
35380;SDS011;21486;51.916;8.378;2023-03-14T06:33:16;4.78;;;1.00;;
35380;SDS011;21486;51.916;8.378;2023-03-14T06:35:41;2.10;;;1.00;;
35380;SDS011;21486;51.916;8.378;2023-03-14T06:38:07;1.57;;;0.90;;
35380;SDS011;21486;51.916;8.378;2023-03-14T06:40:32;3.57;;;0.97;;
35380;SDS011;21486;51.916;8.378;2023-03-14T06:42:58;1.57;;;1.00;;
35380;SDS011;21486;51.916;8.378;2023-03-14T06:45:23;2.63;;;0.93;;
35380;SDS011;21486;51.916;8.378;2023-03-14T06:47:49;3.13;;;1.30;;
35380;SDS011;21486;51.916;8.378;2023-03-14T06:50:14;3.80;;;0.93;;
35380;SDS011;21486;51.916;8.378;2023-03-14T06:52:40;2.60;;;0.87;;
35380;SDS011;21486;51.916;8.378;2023-03-14T06:55:10;2.47;;;0.90;;
35380;SDS011;21486;51.916;8.378;2023-03-14T06:57:36;2.07;;;0.93;;
35380;SDS011;21486;51.916;8.378;2023-03-14T07:00:02;2.95;;;1.00;;
35380;SDS011;21486;51.916;8.378;2023-03-14T07:02:29;3.08;;;1.13;;
35380;SDS011;21486;51.916;8.378;2023-03-14T07:04:55;4.90;;;1.13;;
35380;SDS011;21486;51.916;8.378;2023-03-14T07:07:20;3.53;;;1.30;;
35380;SDS011;21486;51.916;8.378;2023-03-14T07:09:46;3.42;;;1.15;;
35380;SDS011;21486;51.916;8.378;2023-03-14T07:12:12;4.83;;;1.00;;
35380;SDS011;21486;51.916;8.378;2023-03-14T07:14:37;4.30;;;1.30;;
35380;SDS011;21486;51.916;8.378;2023-03-14T07:17:03;2.50;;;1.07;;
35380;SDS011;21486;51.916;8.378;2023-03-14T07:19:28;3.10;;;1.50;;
35380;SDS011;21486;51.916;8.378;2023-03-14T07:21:54;2.97;;;1.17;;
35380;SDS011;21486;51.916;8.378;2023-03-14T07:24:19;2.88;;;1.20;;
35380;SDS011;21486;51.916;8.378;2023-03-14T07:26:45;2.03;;;1.20;;
35380;SDS011;21486;51.916;8.378;2023-03-14T07:29:10;6.43;;;1.30;;
35380;SDS011;21486;51.916;8.378;2023-03-14T07:31:36;3.00;;;1.33;;
35380;SDS011;21486;51.916;8.378;2023-03-14T07:34:01;2.08;;;1.25;;
35380;SDS011;21486;51.916;8.378;2023-03-14T07:36:27;3.85;;;1.35;;
35380;SDS011;21486;51.916;8.378;2023-03-14T07:38:53;4.30;;;1.57;;
35380;SDS011;21486;51.916;8.378;2023-03-14T07:41:19;3.88;;;1.65;;
35380;SDS011;21486;51.916;8.378;2023-03-14T07:43:45;5.20;;;1.30;;
35380;SDS011;21486;51.916;8.378;2023-03-14T07:46:11;2.65;;;1.40;;
35380;SDS011;21486;51.916;8.378;2023-03-14T07:48:36;5.05;;;2.00;;
35380;SDS011;21486;51.916;8.378;2023-03-14T07:51:02;4.20;;;1.55;;
35380;SDS011;21486;51.916;8.378;2023-03-14T07:53:28;6.10;;;1.70;;
35380;SDS011;21486;51.916;8.378;2023-03-14T07:55:53;5.33;;;2.00;;
35380;SDS011;21486;51.916;8.378;2023-03-14T07:58:19;5.63;;;2.03;;
35380;SDS011;21486;51.916;8.378;2023-03-14T08:00:46;4.88;;;1.65;;
35380;SDS011;21486;51.916;8.378;2023-03-14T08:03:12;7.38;;;2.00;;
35380;SDS011;21486;51.916;8.378;2023-03-14T08:05:38;6.03;;;2.10;;
35380;SDS011;21486;51.916;8.378;2023-03-14T08:08:04;3.73;;;2.07;;
35380;SDS011;21486;51.916;8.378;2023-03-14T08:10:30;3.47;;;1.63;;
35380;SDS011;21486;51.916;8.378;2023-03-14T08:12:57;4.22;;;1.60;;
35380;SDS011;21486;51.916;8.378;2023-03-14T08:15:23;5.63;;;1.95;;
35380;SDS011;21486;51.916;8.378;2023-03-14T08:17:49;5.95;;;1.52;;
35380;SDS011;21486;51.916;8.378;2023-03-14T08:20:22;2.55;;;1.30;;
35380;SDS011;21486;51.916;8.378;2023-03-14T08:22:50;2.25;;;1.58;;
35380;SDS011;21486;51.916;8.378;2023-03-14T08:25:15;3.40;;;1.40;;
35380;SDS011;21486;51.916;8.378;2023-03-14T08:27:41;2.58;;;1.42;;
35380;SDS011;21486;51.916;8.378;2023-03-14T08:30:08;4.53;;;1.40;;
35380;SDS011;21486;51.916;8.378;2023-03-14T08:32:36;2.57;;;1.60;;
35380;SDS011;21486;51.916;8.378;2023-03-14T08:35:02;2.97;;;1.30;;
35380;SDS011;21486;51.916;8.378;2023-03-14T08:37:28;2.10;;;1.33;;
35380;SDS011;21486;51.916;8.378;2023-03-14T08:39:55;3.13;;;1.50;;
35380;SDS011;21486;51.916;8.378;2023-03-14T08:42:21;3.27;;;1.53;;
35380;SDS011;21486;51.916;8.378;2023-03-14T08:44:46;2.25;;;1.73;;
35380;SDS011;21486;51.916;8.378;2023-03-14T08:47:12;3.85;;;1.90;;
35380;SDS011;21486;51.916;8.378;2023-03-14T08:49:38;3.63;;;1.55;;
35380;SDS011;21486;51.916;8.378;2023-03-14T08:52:04;2.72;;;1.77;;
35380;SDS011;21486;51.916;8.378;2023-03-14T08:54:30;2.03;;;1.48;;
35380;SDS011;21486;51.916;8.378;2023-03-14T08:56:56;1.40;;;1.20;;
35380;SDS011;21486;51.916;8.378;2023-03-14T08:59:23;2.75;;;1.40;;
35380;SDS011;21486;51.916;8.378;2023-03-14T09:01:49;1.80;;;1.40;;
35380;SDS011;21486;51.916;8.378;2023-03-14T09:04:14;5.00;;;1.58;;
35380;SDS011;21486;51.916;8.378;2023-03-14T09:06:40;3.80;;;1.90;;
35380;SDS011;21486;51.916;8.378;2023-03-14T09:09:06;1.40;;;1.30;;
35380;SDS011;21486;51.916;8.378;2023-03-14T09:11:31;4.35;;;1.60;;
35380;SDS011;21486;51.916;8.378;2023-03-14T09:13:57;2.38;;;1.58;;
35380;SDS011;21486;51.916;8.378;2023-03-14T09:16:23;3.63;;;1.48;;
35380;SDS011;21486;51.916;8.378;2023-03-14T09:18:49;3.15;;;1.65;;
35380;SDS011;21486;51.916;8.378;2023-03-14T09:21:14;2.22;;;1.50;;
35380;SDS011;21486;51.916;8.378;2023-03-14T09:23:40;2.90;;;1.50;;
35380;SDS011;21486;51.916;8.378;2023-03-14T09:26:06;1.42;;;1.33;;
35380;SDS011;21486;51.916;8.378;2023-03-14T09:28:32;2.28;;;1.20;;
35380;SDS011;21486;51.916;8.378;2023-03-14T09:30:57;1.70;;;1.40;;
35380;SDS011;21486;51.916;8.378;2023-03-14T09:33:29;1.13;;;1.08;;
35380;SDS011;21486;51.916;8.378;2023-03-14T09:35:57;1.38;;;1.00;;
35380;SDS011;21486;51.916;8.378;2023-03-14T09:38:23;2.50;;;1.48;;
35380;SDS011;21486;51.916;8.378;2023-03-14T09:40:49;1.77;;;1.35;;
35380;SDS011;21486;51.916;8.378;2023-03-14T09:43:15;1.52;;;1.40;;
35380;SDS011;21486;51.916;8.378;2023-03-14T09:45:41;1.55;;;1.40;;
35380;SDS011;21486;51.916;8.378;2023-03-14T09:48:20;2.80;;;1.43;;
35380;SDS011;21486;51.916;8.378;2023-03-14T09:50:50;3.60;;;1.70;;
35380;SDS011;21486;51.916;8.378;2023-03-14T09:53:19;1.75;;;1.65;;
35380;SDS011;21486;51.916;8.378;2023-03-14T09:55:49;3.00;;;1.60;;
35380;SDS011;21486;51.916;8.378;2023-03-14T09:58:16;2.00;;;1.67;;
35380;SDS011;21486;51.916;8.378;2023-03-14T10:00:44;2.58;;;1.80;;
35380;SDS011;21486;51.916;8.378;2023-03-14T10:05:41;3.05;;;2.20;;
35380;SDS011;21486;51.916;8.378;2023-03-14T10:08:10;3.63;;;2.45;;
35380;SDS011;21486;51.916;8.378;2023-03-14T10:10:36;3.42;;;2.80;;
35380;SDS011;21486;51.916;8.378;2023-03-14T10:13:10;3.87;;;3.00;;
35380;SDS011;21486;51.916;8.378;2023-03-14T10:15:50;4.80;;;3.58;;
35380;SDS011;21486;51.916;8.378;2023-03-14T10:18:36;5.82;;;3.38;;
35380;SDS011;21486;51.916;8.378;2023-03-14T10:23:28;5.63;;;3.77;;
35380;SDS011;21486;51.916;8.378;2023-03-14T10:26:12;5.57;;;3.67;;
35380;SDS011;21486;51.916;8.378;2023-03-14T10:28:45;4.57;;;3.70;;
35380;SDS011;21486;51.916;8.378;2023-03-14T10:31:12;4.13;;;3.30;;
35380;SDS011;21486;51.916;8.378;2023-03-14T10:33:39;4.28;;;3.42;;
35380;SDS011;21486;51.916;8.378;2023-03-14T10:36:15;4.57;;;3.80;;
35380;SDS011;21486;51.916;8.378;2023-03-14T10:38:45;6.97;;;2.90;;
35380;SDS011;21486;51.916;8.378;2023-03-14T10:43:50;3.10;;;1.00;;
35380;SDS011;21486;51.916;8.378;2023-03-14T10:46:18;1.55;;;1.00;;
35380;SDS011;21486;51.916;8.378;2023-03-14T10:48:45;0.82;;;0.80;;
35380;SDS011;21486;51.916;8.378;2023-03-14T10:51:18;0.85;;;0.82;;
35380;SDS011;21486;51.916;8.378;2023-03-14T10:53:50;2.00;;;0.80;;
35380;SDS011;21486;51.916;8.378;2023-03-14T10:56:23;1.10;;;0.80;;
35380;SDS011;21486;51.916;8.378;2023-03-14T10:58:51;0.95;;;0.95;;
35380;SDS011;21486;51.916;8.378;2023-03-14T11:01:26;4.13;;;1.15;;
35380;SDS011;21486;51.916;8.378;2023-03-14T11:14:59;1.80;;;0.90;;
35380;SDS011;21486;51.916;8.378;2023-03-14T11:17:35;3.10;;;1.00;;
35380;SDS011;21486;51.916;8.378;2023-03-14T11:23:27;1.95;;;0.90;;
35380;SDS011;21486;51.916;8.378;2023-03-14T11:26:19;1.10;;;0.90;;
35380;SDS011;21486;51.916;8.378;2023-03-14T11:28:58;2.00;;;1.00;;
35380;SDS011;21486;51.916;8.378;2023-03-14T11:31:35;1.70;;;1.08;;
35380;SDS011;21486;51.916;8.378;2023-03-14T11:36:52;1.00;;;0.90;;
35380;SDS011;21486;51.916;8.378;2023-03-14T11:39:27;0.63;;;0.63;;
35380;SDS011;21486;51.916;8.378;2023-03-14T11:42:01;1.17;;;0.85;;
35380;SDS011;21486;51.916;8.378;2023-03-14T11:44:32;0.95;;;0.80;;
35380;SDS011;21486;51.916;8.378;2023-03-14T11:47:06;0.90;;;0.70;;
35380;SDS011;21486;51.916;8.378;2023-03-14T11:49:43;0.80;;;0.80;;
35380;SDS011;21486;51.916;8.378;2023-03-14T11:55:20;2.30;;;1.10;;
35380;SDS011;21486;51.916;8.378;2023-03-14T11:57:51;0.80;;;0.75;;
35380;SDS011;21486;51.916;8.378;2023-03-14T12:03:09;4.93;;;1.30;;
35380;SDS011;21486;51.916;8.378;2023-03-14T12:08:33;6.75;;;1.40;;
35380;SDS011;21486;51.916;8.378;2023-03-14T12:11:12;5.60;;;1.40;;
35380;SDS011;21486;51.916;8.378;2023-03-14T12:13:48;7.28;;;1.63;;
35380;SDS011;21486;51.916;8.378;2023-03-14T12:16:30;4.97;;;1.40;;
35380;SDS011;21486;51.916;8.378;2023-03-14T12:21:49;6.93;;;1.50;;
35380;SDS011;21486;51.916;8.378;2023-03-14T12:24:19;4.97;;;1.73;;
35380;SDS011;21486;51.916;8.378;2023-03-14T12:26:55;8.50;;;1.90;;
35380;SDS011;21486;51.916;8.378;2023-03-14T12:29:22;6.83;;;1.70;;
35380;SDS011;21486;51.916;8.378;2023-03-14T12:34:26;10.80;;;2.08;;
35380;SDS011;21486;51.916;8.378;2023-03-14T12:48:01;13.95;;;2.55;;
35380;SDS011;21486;51.916;8.378;2023-03-14T12:50:43;9.20;;;1.83;;
35380;SDS011;21486;51.916;8.378;2023-03-14T12:56:21;9.73;;;2.07;;
35380;SDS011;21486;51.916;8.378;2023-03-14T13:02:36;18.33;;;3.15;;
35380;SDS011;21486;51.916;8.378;2023-03-14T13:04:37;14.95;;;2.60;;
35380;SDS011;21486;51.916;8.378;2023-03-14T13:07:11;9.80;;;2.30;;
35380;SDS011;21486;51.916;8.378;2023-03-14T13:12:30;13.95;;;2.40;;
35380;SDS011;21486;51.916;8.378;2023-03-14T13:15:24;13.73;;;2.42;;
35380;SDS011;21486;51.916;8.378;2023-03-14T13:21:03;12.40;;;2.47;;
35380;SDS011;21486;51.916;8.378;2023-03-14T13:23:35;13.82;;;2.60;;
35380;SDS011;21486;51.916;8.378;2023-03-14T13:26:02;18.35;;;3.17;;
35380;SDS011;21486;51.916;8.378;2023-03-14T13:28:29;12.75;;;3.00;;
35380;SDS011;21486;51.916;8.378;2023-03-14T13:31:00;25.63;;;3.95;;
35380;SDS011;21486;51.916;8.378;2023-03-14T13:33:27;18.95;;;3.53;;
35380;SDS011;21486;51.916;8.378;2023-03-14T13:36:00;17.80;;;3.25;;
35380;SDS011;21486;51.916;8.378;2023-03-14T13:38:29;17.40;;;3.90;;
35380;SDS011;21486;51.916;8.378;2023-03-14T13:40:57;23.88;;;4.25;;
35380;SDS011;21486;51.916;8.378;2023-03-14T13:46:01;22.33;;;3.92;;
35380;SDS011;21486;51.916;8.378;2023-03-14T13:48:32;26.15;;;4.38;;
35380;SDS011;21486;51.916;8.378;2023-03-14T13:51:04;27.08;;;4.90;;
35380;SDS011;21486;51.916;8.378;2023-03-14T13:53:31;18.73;;;3.43;;
35380;SDS011;21486;51.916;8.378;2023-03-14T13:56:08;25.67;;;4.10;;
35380;SDS011;21486;51.916;8.378;2023-03-14T13:58:35;25.42;;;3.97;;
35380;SDS011;21486;51.916;8.378;2023-03-14T14:01:37;26.77;;;4.57;;
35380;SDS011;21486;51.916;8.378;2023-03-14T14:04:02;24.55;;;4.03;;
35380;SDS011;21486;51.916;8.378;2023-03-14T14:07:01;23.65;;;4.50;;
35380;SDS011;21486;51.916;8.378;2023-03-14T14:09:37;27.40;;;4.03;;
35380;SDS011;21486;51.916;8.378;2023-03-14T14:12:05;25.73;;;4.65;;
35380;SDS011;21486;51.916;8.378;2023-03-14T14:14:38;20.50;;;4.45;;
35380;SDS011;21486;51.916;8.378;2023-03-14T14:17:09;23.80;;;3.93;;
35380;SDS011;21486;51.916;8.378;2023-03-14T14:19:38;21.33;;;3.97;;
35380;SDS011;21486;51.916;8.378;2023-03-14T14:22:05;28.85;;;3.67;;
35380;SDS011;21486;51.916;8.378;2023-03-14T14:24:32;22.13;;;3.93;;
35380;SDS011;21486;51.916;8.378;2023-03-14T14:27:01;28.95;;;4.40;;
35380;SDS011;21486;51.916;8.378;2023-03-14T14:29:38;23.23;;;4.32;;
35380;SDS011;21486;51.916;8.378;2023-03-14T14:34:37;21.67;;;3.92;;
35380;SDS011;21486;51.916;8.378;2023-03-14T14:37:20;22.95;;;3.35;;
35380;SDS011;21486;51.916;8.378;2023-03-14T14:39:51;22.13;;;3.40;;
35380;SDS011;21486;51.916;8.378;2023-03-14T14:42:19;23.98;;;3.80;;
35380;SDS011;21486;51.916;8.378;2023-03-14T14:44:47;21.40;;;3.80;;
35380;SDS011;21486;51.916;8.378;2023-03-14T14:47:16;17.45;;;3.10;;
35380;SDS011;21486;51.916;8.378;2023-03-14T14:49:46;22.55;;;3.53;;
35380;SDS011;21486;51.916;8.378;2023-03-14T14:52:14;14.98;;;2.97;;
35380;SDS011;21486;51.916;8.378;2023-03-14T14:54:52;14.00;;;2.92;;
35380;SDS011;21486;51.916;8.378;2023-03-14T14:57:24;21.13;;;3.20;;
35380;SDS011;21486;51.916;8.378;2023-03-14T14:59:55;21.33;;;3.42;;
35380;SDS011;21486;51.916;8.378;2023-03-14T15:02:59;20.92;;;3.30;;
35380;SDS011;21486;51.916;8.378;2023-03-14T15:05:21;20.48;;;3.10;;
35380;SDS011;21486;51.916;8.378;2023-03-14T15:07:48;12.90;;;3.20;;
35380;SDS011;21486;51.916;8.378;2023-03-14T15:10:21;16.35;;;3.58;;
35380;SDS011;21486;51.916;8.378;2023-03-14T15:12:48;16.25;;;3.10;;
35380;SDS011;21486;51.916;8.378;2023-03-14T15:15:14;18.55;;;3.05;;
35380;SDS011;21486;51.916;8.378;2023-03-14T15:17:41;15.48;;;2.60;;
35380;SDS011;21486;51.916;8.378;2023-03-14T15:20:10;14.93;;;3.13;;
35380;SDS011;21486;51.916;8.378;2023-03-14T15:22:38;11.02;;;2.55;;
35380;SDS011;21486;51.916;8.378;2023-03-14T15:25:04;11.10;;;2.40;;
35380;SDS011;21486;51.916;8.378;2023-03-14T15:27:31;16.00;;;2.60;;
35380;SDS011;21486;51.916;8.378;2023-03-14T15:29:57;17.20;;;2.85;;
35380;SDS011;21486;51.916;8.378;2023-03-14T15:32:25;15.18;;;2.72;;
35380;SDS011;21486;51.916;8.378;2023-03-14T15:34:52;15.03;;;2.60;;
35380;SDS011;21486;51.916;8.378;2023-03-14T15:37:21;18.25;;;2.72;;
35380;SDS011;21486;51.916;8.378;2023-03-14T15:39:46;12.40;;;2.45;;
35380;SDS011;21486;51.916;8.378;2023-03-14T15:42:12;12.35;;;2.22;;
35380;SDS011;21486;51.916;8.378;2023-03-14T15:44:38;12.18;;;2.40;;
35380;SDS011;21486;51.916;8.378;2023-03-14T15:47:04;11.30;;;2.35;;
35380;SDS011;21486;51.916;8.378;2023-03-14T15:49:31;13.90;;;2.78;;
35380;SDS011;21486;51.916;8.378;2023-03-14T15:51:57;13.25;;;2.40;;
35380;SDS011;21486;51.916;8.378;2023-03-14T15:54:23;13.27;;;2.47;;
35380;SDS011;21486;51.916;8.378;2023-03-14T15:56:53;13.57;;;2.33;;
35380;SDS011;21486;51.916;8.378;2023-03-14T15:59:20;16.08;;;2.63;;
35380;SDS011;21486;51.916;8.378;2023-03-14T16:01:45;14.47;;;2.37;;
35380;SDS011;21486;51.916;8.378;2023-03-14T16:04:12;14.02;;;2.20;;
35380;SDS011;21486;51.916;8.378;2023-03-14T16:06:38;14.13;;;2.97;;
35380;SDS011;21486;51.916;8.378;2023-03-14T16:09:04;11.67;;;2.87;;